createdAt,value
2023-03-29T00:01:36.056Z,100312.98
2023-03-29T00:04:39.165Z,100310.16
2023-03-29T00:07:45.723Z,100314.00
2023-03-29T00:10:50.040Z,100310.29
2023-03-29T00:13:52.258Z,100309.36
2023-03-29T00:17:03.102Z,100301.77
2023-03-29T00:20:10.418Z,100299.81
2023-03-29T00:23:07.578Z,100294.46
2023-03-29T00:26:18.432Z,100292.27
2023-03-29T00:29:22.964Z,100290.94
2023-03-29T00:32:34.117Z,100299.36
2023-03-29T00:35:45.187Z,100295.30
2023-03-29T00:38:39.205Z,100290.88
2023-03-29T00:41:51.056Z,100282.20
2023-03-29T00:44:59.402Z,100268.23
2023-03-29T00:48:12.408Z,100262.92
2023-03-29T00:51:24.551Z,100258.71
2023-03-29T00:54:38.414Z,100253.02
2023-03-29T00:57:49.714Z,100245.74
2023-03-29T01:00:55.776Z,100244.61
2023-03-29T01:03:51.094Z,100248.42
2023-03-29T01:06:55.666Z,100247.45
2023-03-29T01:10:06.873Z,100253.11
2023-03-29T01:13:22.092Z,100253.86
2023-03-29T01:16:27.761Z,100250.66
2023-03-29T01:19:42.231Z,100255.08
2023-03-29T01:23:10.189Z,100252.70
2023-03-29T01:26:25.260Z,100250.19
2023-03-29T01:29:30.272Z,100246.53
2023-03-29T01:32:45.029Z,100230.05
2023-03-29T01:36:00.369Z,100224.05
2023-03-29T01:38:52.454Z,100219.48
2023-03-29T01:42:09.638Z,100212.23
2023-03-29T01:45:05.245Z,100199.77
2023-03-29T01:47:59.307Z,100206.85
2023-03-29T01:50:56.562Z,100208.21
2023-03-29T01:54:07.741Z,100206.38
2023-03-29T01:57:07.235Z,100206.61
2023-03-29T01:59:59.231Z,100205.95
2023-03-29T02:02:50.320Z,100203.33
2023-03-29T02:05:52.016Z,100195.48
2023-03-29T02:08:52.730Z,100188.75
2023-03-29T02:11:53.267Z,100182.75
2023-03-29T02:14:45.884Z,100177.15
2023-03-29T02:17:48.057Z,100167.86
2023-03-29T02:20:44.099Z,100158.49
2023-03-29T02:23:39.603Z,100146.95
2023-03-29T02:26:32.656Z,100141.66
2023-03-29T02:29:28.198Z,100142.54
2023-03-29T02:32:33.868Z,100132.46
2023-03-29T02:35:35.237Z,100128.22
2023-03-29T02:38:28.815Z,100126.94
2023-03-29T02:41:24.092Z,100135.85
2023-03-29T02:44:16.410Z,100136.57
2023-03-29T02:47:10.188Z,100136.23
2023-03-29T02:50:06.804Z,100116.30
2023-03-29T02:53:19.090Z,100106.83
2023-03-29T02:56:12.341Z,100111.64
2023-03-29T02:59:05.337Z,100118.35
2023-03-29T03:01:58.574Z,100113.77
2023-03-29T03:04:50.238Z,100118.83
2023-03-29T03:07:44.248Z,100101.29
2023-03-29T03:10:37.572Z,100075.05
2023-03-29T03:13:27.797Z,100071.73
2023-03-29T03:16:20.682Z,100065.42
2023-03-29T03:19:29.856Z,100022.40
2023-03-29T03:31:14.222Z,100057.80
2023-03-29T03:34:53.450Z,100060.79
2023-03-29T03:38:44.579Z,100075.37
2023-03-29T03:41:59.307Z,100084.17
2023-03-29T03:44:50.512Z,100085.41
2023-03-29T03:48:16.420Z,100078.05
2023-03-29T03:51:13.840Z,100073.98
2023-03-29T03:54:24.511Z,100065.38
2023-03-29T03:57:43.889Z,100058.25
2023-03-29T04:00:37.450Z,100061.48
2023-03-29T04:03:37.839Z,100055.89
2023-03-29T04:06:30.743Z,100039.54
2023-03-29T04:10:00.086Z,100033.52
2023-03-29T04:13:12.185Z,100016.16
2023-03-29T04:16:27.858Z,100008.63
2023-03-29T04:19:21.996Z,100005.48
2023-03-29T04:22:23.412Z,99997.58
2023-03-29T04:25:23.676Z,100006.20
2023-03-29T04:28:22.805Z,100006.00
2023-03-29T04:31:20.327Z,100002.23
2023-03-29T04:34:19.843Z,99991.64
2023-03-29T04:37:22.335Z,99981.25
2023-03-29T04:40:15.445Z,99984.92
2023-03-29T04:43:16.220Z,99975.91
2023-03-29T04:46:16.244Z,99973.84
2023-03-29T04:49:29.431Z,99973.44
2023-03-29T04:52:20.904Z,99981.48
2023-03-29T04:55:13.209Z,99987.56
2023-03-29T04:58:30.710Z,99984.04
2023-03-29T05:01:26.048Z,99978.77
2023-03-29T05:04:20.973Z,99966.48
2023-03-29T05:07:27.159Z,99971.30
2023-03-29T05:10:17.785Z,99964.27
2023-03-29T05:13:08.204Z,99959.73
2023-03-29T05:16:00.788Z,99952.36
2023-03-29T05:18:57.018Z,99952.13
2023-03-29T05:21:47.971Z,99948.02
2023-03-29T05:24:42.466Z,99940.34
2023-03-29T05:27:45.989Z,99938.38
2023-03-29T05:30:36.436Z,99938.46
2023-03-29T05:33:33.868Z,99934.80
2023-03-29T05:36:24.931Z,99923.58
2023-03-29T05:39:16.755Z,99916.20
2023-03-29T05:42:13.720Z,99913.44
2023-03-29T05:45:23.086Z,99901.52
2023-03-29T05:48:21.813Z,99889.74
2023-03-29T05:51:14.966Z,99891.70
2023-03-29T05:54:17.865Z,99894.53
2023-03-29T05:57:28.456Z,99886.66
2023-03-29T06:00:24.497Z,99887.30
2023-03-29T06:03:25.665Z,99901.14
2023-03-29T06:06:27.183Z,99905.38
2023-03-29T06:09:19.622Z,99898.23
2023-03-29T06:12:26.932Z,99896.64
2023-03-29T06:15:23.431Z,99900.90
2023-03-29T06:18:32.445Z,99901.80
2023-03-29T06:21:23.541Z,99892.67
2023-03-29T06:24:15.839Z,99887.33
2023-03-29T06:27:13.606Z,99871.95
2023-03-29T06:30:07.786Z,99861.52
2023-03-29T06:33:01.997Z,99856.02
2023-03-29T06:36:12.198Z,99846.36
2023-03-29T06:39:08.818Z,99840.30
2023-03-29T06:42:28.686Z,99832.39
2023-03-29T06:45:45.357Z,99829.38
2023-03-29T06:48:43.153Z,99832.41
2023-03-29T06:51:35.426Z,99834.65
2023-03-29T06:54:25.956Z,99827.63
2023-03-29T06:57:22.930Z,99813.89
2023-03-29T07:00:22.242Z,99814.59
2023-03-29T07:03:54.944Z,99813.85
2023-03-29T07:07:01.857Z,99807.66
2023-03-29T07:09:55.770Z,99806.00
2023-03-29T07:13:15.763Z,99796.49
2023-03-29T07:16:07.738Z,99792.54
2023-03-29T07:19:09.372Z,99788.48
2023-03-29T07:22:10.160Z,99778.11
2023-03-29T07:25:13.607Z,99781.95
2023-03-29T07:28:03.846Z,99800.39
2023-03-29T07:30:57.427Z,99806.43
2023-03-29T07:33:52.639Z,99814.65
2023-03-29T07:36:43.855Z,99814.52
2023-03-29T07:39:34.022Z,99809.58
2023-03-29T07:42:58.941Z,99790.89
2023-03-29T07:45:52.114Z,99788.42
2023-03-29T07:48:42.945Z,99782.31
2023-03-29T07:51:37.268Z,99778.96
2023-03-29T07:54:32.913Z,99769.28
2023-03-29T07:57:44.739Z,99765.89
2023-03-29T08:00:34.935Z,99766.91
2023-03-29T08:03:43.506Z,99762.50
2023-03-29T08:06:37.532Z,99749.70
2023-03-29T08:09:31.231Z,99725.20
2023-03-29T08:12:25.037Z,99724.48
2023-03-29T08:15:19.209Z,99728.77
2023-03-29T08:18:09.533Z,99726.04
2023-03-29T08:21:00.582Z,99704.13
2023-03-29T08:23:51.311Z,99692.79
2023-03-29T08:26:54.135Z,99679.91
2023-03-29T08:29:44.557Z,99667.84
2023-03-29T08:32:38.293Z,99658.42
2023-03-29T08:35:29.069Z,99651.45
2023-03-29T08:38:31.713Z,99647.03
2023-03-29T08:41:37.988Z,99644.21
2023-03-29T08:44:38.342Z,99652.79
2023-03-29T08:47:40.208Z,99648.33
2023-03-29T08:50:38.042Z,99647.46
2023-03-29T08:53:30.642Z,99642.23
2023-03-29T08:56:29.543Z,99634.04
2023-03-29T08:59:53.868Z,99625.97
2023-03-29T09:02:47.207Z,99623.65
2023-03-29T09:05:41.473Z,99605.09
2023-03-29T09:08:50.557Z,99592.51
2023-03-29T09:11:50.845Z,99586.67
2023-03-29T09:14:46.173Z,99579.92
2023-03-29T09:17:49.907Z,99587.43
2023-03-29T09:20:46.483Z,99586.73
2023-03-29T09:23:48.648Z,99586.90
2023-03-29T09:27:06.303Z,99581.55
2023-03-29T09:30:26.171Z,99575.91
2023-03-29T09:33:42.974Z,99572.64
2023-03-29T09:36:42.242Z,99576.33
2023-03-29T09:39:32.497Z,99568.42
2023-03-29T09:42:31.225Z,99561.57
2023-03-29T09:45:21.746Z,99557.18
2023-03-29T09:48:15.047Z,99546.27
2023-03-29T09:51:10.348Z,99526.38
2023-03-29T09:54:02.159Z,99510.02
2023-03-29T09:57:17.916Z,99525.85
2023-03-29T10:00:10.877Z,99518.08
2023-03-29T10:03:04.352Z,99503.70
2023-03-29T10:06:17.854Z,99498.09
2023-03-29T10:09:17.042Z,99491.66
2023-03-29T10:12:08.471Z,99488.19
2023-03-29T10:15:01.800Z,99483.34
2023-03-29T10:17:58.655Z,99484.77
2023-03-29T10:20:49.086Z,99482.02
2023-03-29T10:23:39.453Z,99468.43
2023-03-29T10:26:32.944Z,99463.71
2023-03-29T10:29:24.006Z,99466.55
2023-03-29T10:32:18.499Z,99468.66
2023-03-29T10:35:10.889Z,99463.48
2023-03-29T10:38:04.212Z,99455.17
2023-03-29T10:40:55.058Z,99453.35
2023-03-29T10:43:49.429Z,99454.90
2023-03-29T10:46:44.129Z,99447.73
2023-03-29T10:49:40.836Z,99443.02
2023-03-29T10:52:31.831Z,99437.30
2023-03-29T10:55:23.348Z,99443.51
2023-03-29T10:58:25.838Z,99442.52
2023-03-29T11:01:19.028Z,99437.17
2023-03-29T11:04:17.545Z,99435.49
2023-03-29T11:07:22.748Z,99439.38
2023-03-29T11:10:26.365Z,99437.38
2023-03-29T11:13:23.630Z,99436.42
2023-03-29T11:16:18.505Z,99437.17
2023-03-29T11:19:15.429Z,99435.23
2023-03-29T11:22:10.005Z,99435.02
2023-03-29T11:25:05.908Z,99438.66
2023-03-29T11:28:00.537Z,99436.13
2023-03-29T11:30:56.354Z,99439.23
2023-03-29T11:33:55.854Z,99438.60
2023-03-29T11:36:53.905Z,99440.31
2023-03-29T11:39:50.830Z,99440.26
2023-03-29T11:42:44.089Z,99427.27
2023-03-29T11:45:36.894Z,99409.64
2023-03-29T11:48:29.872Z,99396.73
2023-03-29T11:51:23.698Z,99394.58
2023-03-29T11:54:19.278Z,99390.23
2023-03-29T11:57:14.111Z,99375.81
2023-03-29T12:00:06.864Z,99374.08
2023-03-29T12:03:08.482Z,99350.63
2023-03-29T12:06:02.673Z,99355.63
2023-03-29T12:08:56.268Z,99356.29
2023-03-29T12:11:50.182Z,99363.05
2023-03-29T12:14:48.239Z,99364.45
2023-03-29T12:17:40.968Z,99356.27
2023-03-29T12:20:33.149Z,99362.16
2023-03-29T12:23:26.407Z,99363.68
2023-03-29T12:26:27.359Z,99356.33
2023-03-29T12:29:29.717Z,99339.80
2023-03-29T12:32:32.086Z,99334.09
2023-03-29T12:35:37.879Z,99327.13
2023-03-29T12:38:54.578Z,99328.02
2023-03-29T12:42:15.584Z,99323.15
2023-03-29T12:45:32.105Z,99321.10
2023-03-29T12:48:25.119Z,99308.99
2023-03-29T12:51:16.743Z,99313.95
2023-03-29T12:54:08.814Z,99305.23
2023-03-29T12:57:21.501Z,99298.05
2023-03-29T13:00:21.286Z,99301.16
2023-03-29T13:03:29.527Z,99296.69
2023-03-29T13:06:33.410Z,99285.84
2023-03-29T13:09:30.065Z,99277.67
2023-03-29T13:12:33.485Z,99273.91
2023-03-29T13:15:26.404Z,99265.45
2023-03-29T13:18:42.329Z,99265.08
2023-03-29T13:21:41.625Z,99266.00
2023-03-29T13:24:52.574Z,99255.93
2023-03-29T13:27:49.129Z,99263.91
2023-03-29T13:30:52.403Z,99270.54
2023-03-29T13:33:55.498Z,99274.67
2023-03-29T13:36:54.800Z,99282.65
2023-03-29T13:39:51.248Z,99281.77
2023-03-29T13:42:44.484Z,99278.05
2023-03-29T13:45:37.232Z,99281.63
2023-03-29T13:48:28.628Z,99273.74
2023-03-29T13:51:42.591Z,99261.14
2023-03-29T13:54:35.037Z,99261.66
2023-03-29T13:57:31.876Z,99243.38
2023-03-29T14:00:24.099Z,99248.17
2023-03-29T14:03:15.717Z,99254.80
2023-03-29T14:06:08.311Z,99251.56
2023-03-29T14:09:00.553Z,99258.19
2023-03-29T14:11:50.777Z,99250.79
2023-03-29T14:14:48.373Z,99245.64
2023-03-29T14:17:48.872Z,99246.56
2023-03-29T14:20:39.331Z,99237.80
2023-03-29T14:23:31.523Z,99247.63
2023-03-29T14:26:22.716Z,99256.61
2023-03-29T14:29:12.950Z,99254.85
2023-03-29T14:32:11.622Z,99243.23
2023-03-29T14:35:01.959Z,99250.55
2023-03-29T14:37:52.179Z,99255.40
2023-03-29T14:40:45.055Z,99257.80
2023-03-29T14:43:35.214Z,99240.35
2023-03-29T14:46:25.785Z,99243.29
2023-03-29T14:49:17.009Z,99229.75
2023-03-29T14:52:07.357Z,99225.33
2023-03-29T14:54:59.655Z,99220.63
2023-03-29T14:57:54.723Z,99224.28
2023-03-29T15:00:44.912Z,99227.11
2023-03-29T15:03:43.770Z,99224.56
2023-03-29T15:06:38.308Z,99227.40
2023-03-29T15:09:30.493Z,99238.05
2023-03-29T15:12:20.872Z,99227.03
2023-03-29T15:15:13.415Z,99210.67
2023-03-29T15:18:04.171Z,99213.73
2023-03-29T15:20:55.724Z,99199.49
2023-03-29T15:23:52.292Z,99198.77
2023-03-29T15:26:43.080Z,99196.66
2023-03-29T15:29:37.160Z,99195.79
2023-03-29T15:32:34.964Z,99197.05
2023-03-29T15:35:26.004Z,99200.48
2023-03-29T15:38:15.979Z,99203.86
2023-03-29T15:41:06.597Z,99195.02
2023-03-29T15:43:57.658Z,99199.72
2023-03-29T15:46:47.740Z,99208.84
2023-03-29T15:49:37.864Z,99200.75
2023-03-29T15:52:28.139Z,99204.86
2023-03-29T15:55:18.646Z,99206.95
2023-03-29T15:58:09.127Z,99210.45
2023-03-29T16:01:03.619Z,99206.70
2023-03-29T16:03:53.940Z,99201.04
2023-03-29T16:06:44.532Z,99196.14
2023-03-29T16:09:34.565Z,99195.88
2023-03-29T16:12:24.679Z,99192.73
2023-03-29T16:15:18.114Z,99196.07
2023-03-29T16:18:08.490Z,99191.29
2023-03-29T16:20:59.530Z,99189.90
2023-03-29T16:23:49.747Z,99197.42
2023-03-29T16:26:39.943Z,99192.74
2023-03-29T16:29:30.214Z,99188.77
2023-03-29T16:32:20.674Z,99184.45
2023-03-29T16:35:14.646Z,99173.15
2023-03-29T16:38:04.816Z,99178.14
2023-03-29T16:40:56.362Z,99182.10
2023-03-29T16:43:48.232Z,99180.32
2023-03-29T16:46:38.508Z,99167.47
2023-03-29T16:49:29.305Z,99171.77
2023-03-29T16:52:19.340Z,99163.61
2023-03-29T16:55:12.251Z,99169.02
2023-03-29T16:58:02.729Z,99174.66
2023-03-29T17:00:56.326Z,99173.98
2023-03-29T17:03:46.594Z,99170.20
2023-03-29T17:06:36.694Z,99169.27
2023-03-29T17:09:29.307Z,99174.53
2023-03-29T17:12:21.313Z,99177.18
2023-03-29T17:15:12.202Z,99176.83
2023-03-29T17:18:02.418Z,99174.63
2023-03-29T17:20:53.372Z,99174.95
2023-03-29T17:23:43.434Z,99178.06
2023-03-29T17:26:33.534Z,99177.35
2023-03-29T17:29:23.635Z,99173.29
2023-03-29T17:32:13.823Z,99167.52
2023-03-29T17:35:04.971Z,99167.15
2023-03-29T17:37:56.036Z,99164.62
2023-03-29T17:40:52.488Z,99169.17
2023-03-29T17:43:43.232Z,99175.98
2023-03-29T17:46:33.402Z,99179.77
2023-03-29T17:49:25.114Z,99178.46
2023-03-29T17:52:15.737Z,99183.48
2023-03-29T17:55:06.958Z,99180.77
2023-03-29T17:57:57.094Z,99172.02
2023-03-29T18:00:47.154Z,99177.56
2023-03-29T18:03:37.506Z,99173.86
2023-03-29T18:06:28.133Z,99168.16
2023-03-29T18:09:18.194Z,99165.23
2023-03-29T18:12:08.507Z,99163.76
2023-03-29T18:14:59.522Z,99165.35
2023-03-29T18:17:50.577Z,99163.71
2023-03-29T18:20:40.893Z,99161.24
2023-03-29T18:23:30.984Z,99162.43
2023-03-29T18:26:23.059Z,99158.61
2023-03-29T18:29:13.371Z,99158.98
2023-03-29T18:32:03.713Z,99159.00
2023-03-29T18:34:53.864Z,99161.92
2023-03-29T18:37:44.021Z,99171.31
2023-03-29T18:40:34.832Z,99175.95
2023-03-29T18:43:24.864Z,99180.07
2023-03-29T18:46:15.218Z,99176.31
2023-03-29T18:49:05.310Z,99177.67
2023-03-29T18:51:55.773Z,99165.36
2023-03-29T18:54:45.943Z,99161.55
2023-03-29T18:57:36.207Z,99157.59
2023-03-29T19:00:36.010Z,99156.77
2023-03-29T19:03:27.300Z,99153.55
2023-03-29T19:06:17.989Z,99151.81
2023-03-29T19:09:08.528Z,99148.96
2023-03-29T19:11:58.676Z,99151.44
2023-03-29T19:14:48.852Z,99154.48
2023-03-29T19:17:39.006Z,99155.20
2023-03-29T19:20:30.108Z,99156.92
2023-03-29T19:23:20.243Z,99156.05
2023-03-29T19:26:10.861Z,99157.72
2023-03-29T19:29:01.123Z,99156.54
2023-03-29T19:31:52.068Z,99159.20
2023-03-29T19:34:42.170Z,99156.44
2023-03-29T19:37:35.759Z,99151.96
2023-03-29T19:40:27.514Z,99145.28
2023-03-29T19:43:18.495Z,99147.19
2023-03-29T19:46:10.617Z,99149.44
2023-03-29T19:49:02.602Z,99147.02
2023-03-29T19:51:55.668Z,99147.43
2023-03-29T19:54:46.203Z,99148.83
2023-03-29T19:57:39.354Z,99145.52
2023-03-29T20:00:29.653Z,99144.17
2023-03-29T20:03:21.938Z,99142.65
2023-03-29T20:06:13.141Z,99145.67
2023-03-29T20:09:05.061Z,99147.06
2023-03-29T20:11:57.777Z,99148.17
2023-03-29T20:14:51.213Z,99144.29
2023-03-29T20:17:41.789Z,99142.69
2023-03-29T20:20:32.277Z,99142.61
2023-03-29T20:23:22.505Z,99140.96
2023-03-29T20:26:13.191Z,99136.55
2023-03-29T20:29:03.649Z,99140.11
2023-03-29T20:31:53.853Z,99136.52
2023-03-29T20:34:45.131Z,99138.01
2023-03-29T20:37:35.491Z,99137.90
2023-03-29T20:40:25.688Z,99140.83
2023-03-29T20:43:19.161Z,99140.87
2023-03-29T20:46:14.844Z,99137.86
2023-03-29T20:49:05.848Z,99141.16
2023-03-29T20:51:59.555Z,99136.26
2023-03-29T20:54:49.993Z,99135.94
2023-03-29T20:57:40.761Z,99128.55
2023-03-29T21:00:35.514Z,99123.52
2023-03-29T21:03:25.985Z,99122.16
2023-03-29T21:06:16.292Z,99115.55
2023-03-29T21:09:06.578Z,99117.98
2023-03-29T21:11:59.283Z,99118.55
2023-03-29T21:14:49.623Z,99118.08
2023-03-29T21:17:39.991Z,99123.27
2023-03-29T21:20:34.824Z,99129.15
2023-03-29T21:23:25.276Z,99126.70
2023-03-29T21:26:15.756Z,99129.97
2023-03-29T21:29:06.004Z,99132.07
2023-03-29T21:31:56.452Z,99129.09
2023-03-29T21:34:46.982Z,99127.98
2023-03-29T21:37:37.561Z,99124.55
2023-03-29T21:40:34.424Z,99124.60
2023-03-29T21:43:25.072Z,99119.23
2023-03-29T21:46:15.724Z,99123.80
2023-03-29T21:49:26.350Z,99125.17
2023-03-29T21:52:19.229Z,99125.46
2023-03-29T21:55:14.859Z,99130.58
2023-03-29T21:58:11.660Z,99133.52
2023-03-29T22:01:03.870Z,99137.70
2023-03-29T22:03:54.174Z,99143.48
2023-03-29T22:06:44.947Z,99140.66
2023-03-29T22:09:38.180Z,99139.88
2023-03-29T22:12:32.462Z,99139.55
2023-03-29T22:15:35.591Z,99142.69
2023-03-29T22:18:34.204Z,99139.95
2023-03-29T22:21:25.486Z,99140.73
2023-03-29T22:28:05.394Z,99141.34
2023-03-29T22:34:22.393Z,99146.10
2023-03-29T22:37:27.277Z,99148.13
2023-03-29T22:40:51.814Z,99156.10
2023-03-29T22:44:25.376Z,99153.73
2023-03-29T22:51:20.346Z,99164.69
2023-03-29T22:54:42.932Z,99166.84
2023-03-29T22:58:44.226Z,99171.09
2023-03-29T23:01:31.802Z,99172.75
2023-03-29T23:05:10.910Z,99175.31
2023-03-29T23:09:00.573Z,99177.25
2023-03-29T23:12:04.145Z,99182.70
2023-03-29T23:14:56.005Z,99186.61
2023-03-29T23:17:46.172Z,99189.87
2023-03-29T23:20:36.411Z,99192.46
2023-03-29T23:23:29.302Z,99199.80
2023-03-29T23:26:19.432Z,99200.14
2023-03-29T23:29:09.647Z,99202.37
2023-03-29T23:31:59.849Z,99206.63
2023-03-29T23:34:50.274Z,99208.55
2023-03-29T23:37:40.702Z,99210.17
2023-03-29T23:40:39.711Z,99210.90
2023-03-29T23:43:36.039Z,99214.86
2023-03-29T23:46:26.725Z,99220.33
2023-03-29T23:49:22.898Z,99223.66
2023-03-29T23:52:13.368Z,99226.96
2023-03-29T23:55:04.721Z,99223.63
2023-03-29T23:57:58.139Z,99224.45
